Time;durP1;ratioP1;P1;durP2;ratioP2;P2;SDS_P1;SDS_P2;PMS_P1;PMS_P2;Temp;Humidity;BMP_temperature;BMP_pressure;BME280_temperature;BME280_humidity;BME280_pressure;Samples;Min_cycle;Max_cycle;Signal;HPM_P1;HPM_P2
2023/06/09 00:00:55;;;;;;;8.85;6.18;;;14.40;99.90;;;;;;5077338;28;20051;-67
2023/06/09 00:03:22;;;;;;;8.35;5.85;;;14.30;99.90;;;;;;5082105;28;20048;-65
2023/06/09 00:05:49;;;;;;;7.50;5.05;;;14.30;99.90;;;;;;5095784;28;20035;-67
2023/06/09 00:08:16;;;;;;;8.75;5.72;;;14.20;99.90;;;;;;5096860;28;20488;-67
2023/06/09 00:10:43;;;;;;;7.13;5.38;;;14.30;99.90;;;;;;5070214;28;20043;-66
2023/06/09 00:13:10;;;;;;;9.57;5.93;;;14.30;99.90;;;;;;5090940;28;20496;-67
2023/06/09 00:15:37;;;;;;;8.98;6.35;;;14.20;99.90;;;;;;5093034;28;20393;-66
2023/06/09 00:18:04;;;;;;;7.43;5.50;;;14.20;99.90;;;;;;5086402;28;20090;-67
2023/06/09 00:20:34;;;;;;;;;;;14.20;99.90;;;;;;5092616;28;20060;-67
2023/06/09 00:23:01;;;;;;;8.38;6.03;;;14.10;99.90;;;;;;5075828;28;20015;-67
2023/06/09 00:25:28;;;;;;;11.77;5.53;;;14.00;99.90;;;;;;5092341;28;20060;-66
2023/06/09 00:27:55;;;;;;;9.38;6.00;;;14.00;99.90;;;;;;5077252;28;20050;-66
2023/06/09 00:30:23;;;;;;;7.93;5.35;;;13.90;99.90;;;;;;5093487;28;20039;-66
2023/06/09 00:33:05;;;;;;;9.30;5.57;;;13.90;99.90;;;;;;5097082;28;20119;-67
2023/06/09 00:35:32;;;;;;;8.95;5.95;;;13.90;99.90;;;;;;5062256;28;20040;-67
2023/06/09 00:37:59;;;;;;;9.10;5.82;;;13.90;99.90;;;;;;5093759;28;20361;-63
2023/06/09 00:40:26;;;;;;;7.22;5.68;;;13.90;99.90;;;;;;5072736;28;20503;-64
2023/06/09 00:42:54;;;;;;;9.02;5.57;;;13.90;99.90;;;;;;5069889;28;20042;-63
2023/06/09 00:45:21;;;;;;;12.20;6.10;;;13.80;99.90;;;;;;5088943;28;20075;-63
2023/06/09 00:47:48;;;;;;;10.45;5.95;;;13.90;99.90;;;;;;5080554;28;20416;-63
2023/06/09 00:50:16;;;;;;;7.35;5.13;;;13.90;99.90;;;;;;5089368;28;20039;-61
2023/06/09 00:52:45;;;;;;;7.75;5.78;;;13.80;99.90;;;;;;5073454;28;20040;-63
2023/06/09 00:55:13;;;;;;;7.50;5.10;;;13.90;99.90;;;;;;5091042;28;20042;-63
2023/06/09 00:57:44;;;;;;;9.05;5.90;;;13.90;99.90;;;;;;5091966;28;20485;-63
2023/06/09 01:00:15;;;;;;;7.55;5.28;;;13.90;99.90;;;;;;5090197;28;20115;-63
2023/06/09 01:02:43;;;;;;;8.95;5.25;;;13.90;99.90;;;;;;5092307;28;20093;-63
2023/06/09 01:05:12;;;;;;;7.30;5.40;;;13.90;99.90;;;;;;5077186;28;20090;-63
2023/06/09 01:07:54;;;;;;;7.85;5.47;;;13.80;99.90;;;;;;5081063;28;20500;-62
2023/06/09 01:10:41;;;;;;;8.98;5.80;;;13.80;99.90;;;;;;5091639;28;20048;-62
2023/06/09 01:13:38;;;;;;;7.10;5.70;;;13.70;99.90;;;;;;5091757;28;20047;-63
2023/06/09 01:16:12;;;;;;;9.25;5.85;;;13.70;99.90;;;;;;5088232;28;20063;-63
2023/06/09 01:18:42;;;;;;;9.10;5.97;;;13.60;99.90;;;;;;5067247;28;20036;-63
2023/06/09 01:21:12;;;;;;;9.23;5.57;;;13.50;99.90;;;;;;5073960;28;20101;-63
2023/06/09 01:24:09;;;;;;;7.90;5.80;;;13.50;99.90;;;;;;5085373;28;20228;-63
2023/06/09 01:26:38;;;;;;;8.65;5.75;;;13.50;99.90;;;;;;5091709;28;20119;-63
2023/06/09 01:29:06;;;;;;;8.75;5.70;;;13.50;99.90;;;;;;5091164;28;20048;-63
2023/06/09 01:31:35;;;;;;;9.10;6.03;;;13.50;99.90;;;;;;5091044;28;20059;-63
2023/06/09 01:34:03;;;;;;;8.90;6.05;;;13.40;99.90;;;;;;5090962;28;20050;-63
2023/06/09 01:36:31;;;;;;;9.40;5.60;;;13.40;99.90;;;;;;5055240;28;20036;-63
2023/06/09 01:38:58;;;;;;;8.10;5.80;;;13.40;99.90;;;;;;5073013;28;20055;-63
2023/06/09 01:41:25;;;;;;;8.48;6.03;;;13.40;99.90;;;;;;5087937;28;20058;-63
2023/06/09 01:43:53;;;;;;;8.82;5.47;;;13.40;99.90;;;;;;5091270;28;20086;-63
2023/06/09 01:46:21;;;;;;;16.40;6.43;;;13.40;99.90;;;;;;5073197;28;20109;-63
2023/06/09 01:49:12;;;;;;;10.25;6.13;;;13.40;99.90;;;;;;5073661;28;20492;-63
2023/06/09 01:51:57;;;;;;;9.10;6.20;;;13.40;99.90;;;;;;5082457;28;20031;-63
2023/06/09 01:54:31;;;;;;;11.30;6.05;;;13.40;99.90;;;;;;5072132;28;20052;-63
2023/06/09 01:57:06;;;;;;;9.93;6.10;;;13.30;99.90;;;;;;5090988;28;20435;-63
2023/06/09 01:59:44;;;;;;;7.70;5.85;;;13.30;99.90;;;;;;5072409;28;20036;-63
2023/06/09 02:02:12;;;;;;;8.98;6.10;;;13.30;99.90;;;;;;5055507;28;20503;-63
2023/06/09 02:04:41;;;;;;;7.85;5.90;;;13.20;99.90;;;;;;5091331;28;20093;-63
2023/06/09 02:07:10;;;;;;;12.15;6.78;;;13.20;99.90;;;;;;5077247;28;20043;-63
2023/06/09 02:09:37;;;;;;;9.23;6.03;;;13.20;99.90;;;;;;5090030;28;20568;-63
2023/06/09 02:12:04;;;;;;;8.68;5.75;;;13.10;99.90;;;;;;5071529;28;20044;-63
2023/06/09 02:14:33;;;;;;;9.18;5.93;;;13.00;99.90;;;;;;5055905;28;20040;-62
2023/06/09 02:17:04;;;;;;;10.02;6.43;;;13.00;99.90;;;;;;5090051;28;20064;-63
2023/06/09 02:19:35;;;;;;;9.50;6.72;;;13.00;99.90;;;;;;5072744;28;20040;-63
2023/06/09 02:22:02;;;;;;;9.95;6.78;;;13.10;99.90;;;;;;5078688;28;20064;-63
2023/06/09 02:24:30;;;;;;;11.80;7.00;;;13.20;99.90;;;;;;5079583;28;20055;-63
2023/06/09 02:26:57;;;;;;;9.13;6.28;;;13.30;99.90;;;;;;5071766;28;20523;-63
2023/06/09 02:29:25;;;;;;;9.65;6.32;;;13.20;99.90;;;;;;5068745;28;20561;-63
2023/06/09 02:31:55;;;;;;;;;;;13.10;99.90;;;;;;5091110;28;20032;-64
2023/06/09 02:34:22;;;;;;;8.73;6.03;;;13.10;99.90;;;;;;5090846;28;19964;-63
2023/06/09 02:36:52;;;;;;;9.52;6.28;;;13.10;99.90;;;;;;5071681;28;20040;-63
2023/06/09 02:39:20;;;;;;;12.23;6.20;;;13.00;99.90;;;;;;5072019;28;20059;-63
2023/06/09 02:41:47;;;;;;;12.50;6.25;;;13.10;99.90;;;;;;5089382;28;20047;-63
2023/06/09 02:44:15;;;;;;;11.63;6.53;;;13.10;99.90;;;;;;5081292;28;20041;-63
2023/06/09 02:46:44;;;;;;;8.40;6.13;;;13.00;99.90;;;;;;5083267;28;20127;-63
2023/06/09 02:49:11;;;;;;;8.75;6.53;;;13.00;99.90;;;;;;5068017;28;20036;-63
2023/06/09 02:51:40;;;;;;;12.93;7.57;;;13.00;99.90;;;;;;5080219;28;20472;-63
2023/06/09 02:54:10;;;;;;;12.82;8.25;;;13.00;99.90;;;;;;5072107;28;20048;-63
2023/06/09 02:56:37;;;;;;;10.85;8.15;;;13.00;99.90;;;;;;5068680;28;20126;-64
2023/06/09 02:59:05;;;;;;;10.43;7.93;;;12.90;99.90;;;;;;5072091;28;20047;-63
2023/06/09 03:01:36;;;;;;;14.45;7.80;;;12.90;99.90;;;;;;5071101;28;20036;-63
2023/06/09 03:04:05;;;;;;;12.45;6.55;;;12.90;99.90;;;;;;5072414;28;20064;-64
2023/06/09 03:06:36;;;;;;;15.13;7.50;;;12.90;99.90;;;;;;5075678;28;20048;-63
2023/06/09 03:09:06;;;;;;;10.77;7.50;;;12.80;99.90;;;;;;5075721;28;20093;-63
2023/06/09 03:11:34;;;;;;;11.68;8.15;;;12.80;99.90;;;;;;5074777;28;20055;-63
2023/06/09 03:14:01;;;;;;;8.85;6.88;;;12.80;99.90;;;;;;5075591;28;20040;-63
2023/06/09 03:16:28;;;;;;;10.38;7.00;;;12.80;99.90;;;;;;5077460;28;20032;-62
2023/06/09 03:18:55;;;;;;;9.30;7.10;;;12.70;99.90;;;;;;5075530;28;20078;-63
2023/06/09 03:21:24;;;;;;;9.80;6.80;;;12.70;99.90;;;;;;5078160;28;20040;-63
2023/06/09 03:23:53;;;;;;;11.73;6.88;;;12.60;99.90;;;;;;5074534;28;20036;-63
2023/06/09 03:26:20;;;;;;;10.65;7.53;;;12.70;99.90;;;;;;5079555;28;20075;-63
2023/06/09 03:28:47;;;;;;;12.05;6.93;;;12.50;99.90;;;;;;5074872;28;20047;-64
2023/06/09 03:31:17;;;;;;;11.95;7.57;;;12.60;99.90;;;;;;5093270;28;20204;-63
2023/06/09 03:33:46;;;;;;;11.57;7.75;;;12.60;99.90;;;;;;5083866;28;20044;-63
2023/06/09 03:36:13;;;;;;;10.10;7.28;;;12.60;99.90;;;;;;5080246;28;20073;-63
2023/06/09 03:38:40;;;;;;;13.88;8.25;;;12.60;99.90;;;;;;5075378;28;20576;-63
2023/06/09 03:41:07;;;;;;;13.02;8.07;;;12.70;99.90;;;;;;5074923;28;20040;-62
2023/06/09 03:43:34;;;;;;;8.90;6.80;;;12.70;99.90;;;;;;5074975;28;20524;-63
2023/06/09 03:46:01;;;;;;;;;;;12.70;99.90;;;;;;5072522;28;20028;-62
2023/06/09 03:48:30;;;;;;;;;;;12.70;99.90;;;;;;5067095;28;19928;-63
2023/06/09 03:50:57;;;;;;;17.13;8.65;;;12.70;99.90;;;;;;5091576;28;19920;-63
2023/06/09 03:53:24;;;;;;;13.75;8.60;;;12.70;99.90;;;;;;5083961;28;20510;-62
2023/06/09 03:55:51;;;;;;;15.13;9.30;;;12.70;99.90;;;;;;5074181;28;20121;-63
2023/06/09 03:58:19;;;;;;;13.70;9.15;;;12.70;99.90;;;;;;5058435;28;20072;-62
2023/06/09 04:00:47;;;;;;;14.75;9.82;;;12.70;99.90;;;;;;5065881;28;20107;-63
2023/06/09 04:03:14;;;;;;;12.05;8.90;;;12.70;99.90;;;;;;5078322;28;20082;-63
2023/06/09 04:05:42;;;;;;;13.48;9.43;;;12.80;99.90;;;;;;5075159;28;20381;-63
2023/06/09 04:08:10;;;;;;;12.05;8.90;;;12.90;99.90;;;;;;5077866;28;20134;-63
2023/06/09 04:10:37;;;;;;;16.23;10.10;;;12.90;99.90;;;;;;5075026;28;20488;-64
2023/06/09 04:13:03;;;;;;;14.52;11.05;;;13.00;99.90;;;;;;5091567;28;20058;-62
2023/06/09 04:15:31;;;;;;;14.27;10.55;;;13.00;99.90;;;;;;5092739;28;20036;-63
2023/06/09 04:17:58;;;;;;;15.60;9.73;;;13.00;99.90;;;;;;5059356;28;20047;-63
2023/06/09 04:20:30;;;;;;;15.45;9.77;;;13.00;99.90;;;;;;5074424;28;20097;-63
2023/06/09 04:22:58;;;;;;;13.00;9.02;;;13.10;99.90;;;;;;5073931;28;20036;-63
2023/06/09 04:25:28;;;;;;;14.77;9.45;;;13.10;99.90;;;;;;5058264;28;20059;-63
2023/06/09 04:28:03;;;;;;;14.60;9.70;;;13.30;99.90;;;;;;5074492;28;20181;-63
2023/06/09 04:30:34;;;;;;;15.90;9.00;;;13.20;99.90;;;;;;5073784;28;20047;-61
2023/06/09 04:33:04;;;;;;;14.82;9.60;;;13.30;99.90;;;;;;5058476;28;20138;-64
2023/06/09 04:35:31;;;;;;;16.95;10.07;;;13.30;99.90;;;;;;5070976;28;20130;-64
2023/06/09 04:37:59;;;;;;;12.80;8.90;;;13.30;99.90;;;;;;5093258;28;20050;-63
2023/06/09 04:40:31;;;;;;;16.00;9.82;;;13.40;99.90;;;;;;5073733;28;20047;-63
2023/06/09 04:43:01;;;;;;;12.88;9.00;;;13.40;99.90;;;;;;5074698;28;20036;-64
2023/06/09 04:45:36;;;;;;;16.83;9.73;;;13.40;99.90;;;;;;5074000;28;20058;-63
2023/06/09 04:48:12;;;;;;;14.25;9.52;;;13.50;99.90;;;;;;5073208;28;20051;-64
2023/06/09 04:50:44;;;;;;;15.73;9.73;;;13.50;99.90;;;;;;5089314;28;20044;-63
2023/06/09 04:53:11;;;;;;;13.43;9.50;;;13.60;99.90;;;;;;5073635;28;20044;-63
2023/06/09 04:55:43;;;;;;;20.00;9.38;;;13.60;99.90;;;;;;5069599;28;20050;-63
2023/06/09 04:58:11;;;;;;;15.57;9.18;;;13.70;99.90;;;;;;5089932;28;20036;-63
2023/06/09 05:00:39;;;;;;;12.98;8.23;;;13.70;99.90;;;;;;5072540;28;20105;-63
2023/06/09 05:03:13;;;;;;;12.70;8.30;;;13.70;99.90;;;;;;5074253;28;20042;-63
2023/06/09 05:05:41;;;;;;;12.38;8.57;;;13.60;99.90;;;;;;5073084;28;20048;-63
2023/06/09 05:08:09;;;;;;;11.18;7.95;;;13.50;99.90;;;;;;5073353;28;20036;-63
2023/06/09 05:10:36;;;;;;;13.35;8.93;;;13.50;99.90;;;;;;5072444;28;20067;-64
2023/06/09 05:13:05;;;;;;;16.33;10.07;;;13.50;99.90;;;;;;5074047;28;20127;-62
2023/06/09 05:15:32;;;;;;;13.15;9.23;;;13.50;99.90;;;;;;5073339;28;20040;-63
2023/06/09 05:17:59;;;;;;;18.33;9.75;;;13.70;99.90;;;;;;5063939;28;20040;-64
2023/06/09 05:20:26;;;;;;;14.13;8.85;;;13.70;99.90;;;;;;5073535;28;20066;-63
2023/06/09 05:22:54;;;;;;;16.77;9.38;;;13.80;99.90;;;;;;5072318;28;20425;-64
2023/06/09 05:25:21;;;;;;;16.02;9.23;;;13.90;99.90;;;;;;5072932;28;20097;-62
2023/06/09 05:27:48;;;;;;;12.88;8.75;;;14.10;99.90;;;;;;5090628;28;20599;-63
2023/06/09 05:30:17;;;;;;;15.18;9.02;;;14.30;99.90;;;;;;5068961;28;20048;-63
2023/06/09 05:32:45;;;;;;;14.65;9.07;;;14.50;99.90;;;;;;5070787;28;20139;-63
2023/06/09 05:35:12;;;;;;;17.85;9.65;;;14.50;99.90;;;;;;5072141;28;20036;-63
2023/06/09 05:37:50;;;;;;;10.80;8.57;;;14.50;99.90;;;;;;5071322;28;20082;-63
2023/06/09 05:40:20;;;;;;;15.60;9.15;;;14.50;99.90;;;;;;5073383;28;20055;-64
2023/06/09 05:42:47;;;;;;;14.48;8.65;;;14.60;99.90;;;;;;5054928;28;20139;-64
2023/06/09 05:45:14;;;;;;;12.60;8.95;;;14.60;99.90;;;;;;5084859;28;20051;-63
2023/06/09 05:47:41;;;;;;;13.23;9.88;;;14.60;99.90;;;;;;5071976;28;20040;-64
2023/06/09 05:50:08;;;;;;;16.20;9.20;;;14.70;99.90;;;;;;5071876;28;20484;-62
2023/06/09 05:52:35;;;;;;;13.18;9.10;;;14.70;99.90;;;;;;5090630;28;20044;-64
2023/06/09 05:55:02;;;;;;;13.48;9.40;;;14.70;99.90;;;;;;5090955;28;20036;-64
2023/06/09 05:57:32;;;;;;;11.80;8.38;;;14.80;99.90;;;;;;5074716;28;20044;-64
2023/06/09 06:00:00;;;;;;;12.98;8.93;;;14.80;99.90;;;;;;5091481;28;20044;-64
2023/06/09 06:02:27;;;;;;;13.30;8.90;;;14.90;99.90;;;;;;5088206;28;20467;-64
2023/06/09 06:04:54;;;;;;;14.63;8.80;;;14.90;99.90;;;;;;5084577;28;20051;-64
2023/06/09 06:07:21;;;;;;;17.15;8.55;;;14.90;99.90;;;;;;5085170;28;20420;-64
2023/06/09 06:09:48;;;;;;;16.45;9.15;;;15.00;99.90;;;;;;5055445;28;20485;-64
2023/06/09 06:12:15;;;;;;;;;;;15.10;99.90;;;;;;5081424;28;20123;-64
2023/06/09 06:14:41;;;;;;;13.23;8.50;;;15.20;99.90;;;;;;5083865;28;19923;-64
2023/06/09 06:17:08;;;;;;;11.77;8.35;;;15.20;99.90;;;;;;5087670;28;20043;-63
2023/06/09 06:19:35;;;;;;;11.77;7.70;;;15.40;99.90;;;;;;5074126;28;20067;-63
2023/06/09 06:22:02;;;;;;;13.32;8.85;;;15.50;99.90;;;;;;5052754;28;20481;-63
2023/06/09 06:24:29;;;;;;;;;;;15.60;99.90;;;;;;5085257;28;20050;-63
2023/06/09 06:26:56;;;;;;;14.38;8.43;;;15.70;99.90;;;;;;5082982;28;19920;-63
2023/06/09 06:29:22;;;;;;;14.57;8.50;;;15.80;99.90;;;;;;5086680;28;20412;-64
2023/06/09 06:31:49;;;;;;;14.95;8.02;;;15.90;99.90;;;;;;5089781;28;20500;-64
2023/06/09 06:34:16;;;;;;;12.57;7.85;;;16.00;99.90;;;;;;5088571;28;20047;-63
2023/06/09 06:36:43;;;;;;;12.02;8.15;;;16.00;99.90;;;;;;5088624;28;20043;-63
2023/06/09 06:39:12;;;;;;;10.13;7.50;;;16.20;99.90;;;;;;5091239;28;20044;-64
2023/06/09 06:41:39;;;;;;;9.35;7.70;;;16.30;99.90;;;;;;5094579;28;20043;-63
2023/06/09 06:44:06;;;;;;;;;;;16.50;99.90;;;;;;5094440;28;20043;-63
2023/06/09 06:46:33;;;;;;;11.57;7.70;;;16.60;99.90;;;;;;5094401;28;19920;-63
2023/06/09 06:49:00;;;;;;;13.40;8.10;;;16.70;99.90;;;;;;5090805;28;20072;-63
2023/06/09 06:51:27;;;;;;;11.55;8.13;;;16.80;99.90;;;;;;5091758;28;20090;-64
2023/06/09 06:53:54;;;;;;;11.75;7.43;;;17.00;99.90;;;;;;5094047;28;20073;-64
2023/06/09 06:56:21;;;;;;;10.32;7.05;;;17.10;99.90;;;;;;5094271;28;20036;-64
2023/06/09 06:58:49;;;;;;;14.98;8.52;;;17.20;99.90;;;;;;5093821;28;20504;-64
2023/06/09 07:01:17;;;;;;;11.25;6.93;;;17.40;99.90;;;;;;5093455;28;20047;-63
2023/06/09 07:03:45;;;;;;;10.55;7.28;;;17.50;99.90;;;;;;5094379;28;20126;-63
2023/06/09 07:06:12;;;;;;;10.27;7.05;;;17.60;99.90;;;;;;5076180;28;20048;-63
2023/06/09 07:08:39;;;;;;;10.68;6.88;;;17.80;99.90;;;;;;5074017;28;20059;-63
2023/06/09 07:11:05;;;;;;;12.80;7.32;;;18.00;99.90;;;;;;5094583;28;20040;-63
2023/06/09 07:13:32;;;;;;;11.45;7.82;;;18.10;99.90;;;;;;5093587;28;20434;-63
2023/06/09 07:16:00;;;;;;;8.80;7.18;;;18.20;99.90;;;;;;5093472;28;20028;-64
2023/06/09 07:18:28;;;;;;;10.02;7.00;;;18.20;99.90;;;;;;5093255;28;20094;-64
2023/06/09 07:20:55;;;;;;;10.25;7.40;;;18.30;99.90;;;;;;5094226;28;20040;-64
2023/06/09 07:23:22;;;;;;;13.13;7.47;;;18.40;99.90;;;;;;5091657;28;20033;-64
2023/06/09 07:25:49;;;;;;;11.20;7.32;;;18.60;99.90;;;;;;5085741;28;20506;-64
2023/06/09 07:28:16;;;;;;;9.88;6.97;;;18.70;99.90;;;;;;5074690;28;20042;-63
2023/06/09 07:30:43;;;;;;;13.65;6.78;;;18.90;99.90;;;;;;5073795;28;20044;-64
2023/06/09 07:33:10;;;;;;;11.77;6.97;;;19.00;99.90;;;;;;5072759;28;20044;-63
2023/06/09 07:35:37;;;;;;;8.13;6.40;;;19.00;99.90;;;;;;5093594;28;20493;-64
2023/06/09 07:38:05;;;;;;;12.02;7.47;;;19.10;99.90;;;;;;5056147;28;20504;-64
2023/06/09 07:40:32;;;;;;;9.18;6.65;;;19.20;99.90;;;;;;5090250;28;20101;-63
2023/06/09 07:42:59;;;;;;;11.05;6.88;;;19.30;99.90;;;;;;5083395;28;20115;-63
2023/06/09 07:45:25;;;;;;;10.35;6.93;;;19.20;99.90;;;;;;5082857;28;20048;-64
2023/06/09 07:47:52;;;;;;;9.23;6.07;;;19.30;99.90;;;;;;5090640;28;20048;-64
2023/06/09 07:50:19;;;;;;;10.20;6.60;;;19.30;99.90;;;;;;5093189;28;20126;-64
2023/06/09 07:52:46;;;;;;;8.55;6.22;;;19.50;99.90;;;;;;5091736;28;20048;-64
2023/06/09 07:55:13;;;;;;;10.23;6.65;;;19.70;99.90;;;;;;5088064;28;20040;-64
2023/06/09 07:57:42;;;;;;;7.75;5.88;;;19.80;99.90;;;;;;5088933;28;20493;-64
2023/06/09 08:00:10;;;;;;;13.65;6.32;;;19.80;99.90;;;;;;5074976;28;20032;-64
2023/06/09 08:02:42;;;;;;;12.00;6.53;;;19.90;99.90;;;;;;5089373;28;20036;-64
2023/06/09 08:05:20;;;;;;;7.40;6.10;;;20.00;99.90;;;;;;5073131;28;20070;-64
2023/06/09 08:07:46;;;;;;;9.18;6.45;;;20.10;99.90;;;;;;5084865;28;20473;-64
2023/06/09 08:10:13;;;;;;;9.02;5.97;;;20.10;99.90;;;;;;5092360;28;20040;-64
2023/06/09 08:12:40;;;;;;;9.23;6.15;;;20.20;99.90;;;;;;5072170;28;20047;-64
2023/06/09 08:15:07;;;;;;;9.15;6.05;;;20.40;99.90;;;;;;5074289;28;20403;-64
2023/06/09 08:17:34;;;;;;;;;;;20.40;99.90;;;;;;5091934;28;20055;-64
2023/06/09 08:20:03;;;;;;;7.43;6.00;;;20.50;99.90;;;;;;5078469;28;20355;-64
2023/06/09 08:22:30;;;;;;;7.07;5.25;;;20.50;99.90;;;;;;5092134;28;20064;-64
2023/06/09 08:24:58;;;;;;;;;;;20.70;99.90;;;;;;5091823;28;20556;-64
2023/06/09 08:27:25;;;;;;;8.73;5.85;;;20.90;99.90;;;;;;5092326;28;19920;-64
2023/06/09 08:29:52;;;;;;;7.68;5.50;;;21.00;99.90;;;;;;5090403;28;20062;-64
2023/06/09 08:32:19;;;;;;;7.78;5.85;;;21.10;99.90;;;;;;5091973;28;20048;-64
2023/06/09 08:34:45;;;;;;;6.82;5.70;;;21.10;99.90;;;;;;5091353;28;20036;-64
2023/06/09 08:37:13;;;;;;;6.90;5.53;;;21.20;99.90;;;;;;5090137;28;20067;-64
2023/06/09 08:39:39;;;;;;;;;;;21.30;99.90;;;;;;5092025;28;20040;-64
2023/06/09 08:42:23;;;;;;;7.82;5.68;;;21.50;99.90;;;;;;5091002;28;19949;-64
2023/06/09 08:44:55;;;;;;;8.20;6.35;;;21.40;99.90;;;;;;5089511;28;20042;-64
2023/06/09 08:47:25;;;;;;;10.07;5.72;;;21.60;99.90;;;;;;5092680;28;20124;-64
2023/06/09 08:49:57;;;;;;;7.97;5.82;;;21.70;99.90;;;;;;5072663;28;20076;-64
2023/06/09 08:52:25;;;;;;;12.18;6.13;;;21.70;99.90;;;;;;5092247;28;20085;-64
2023/06/09 08:54:53;;;;;;;10.85;6.45;;;22.10;99.90;;;;;;5071248;28;20051;-64
2023/06/09 08:57:21;;;;;;;9.35;6.25;;;22.10;99.90;;;;;;5074168;28;20048;-64
2023/06/09 08:59:48;;;;;;;9.30;5.80;;;22.30;99.90;;;;;;5090231;28;20036;-64
2023/06/09 09:02:15;;;;;;;8.98;5.40;;;22.40;99.90;;;;;;5090063;28;20039;-64
2023/06/09 09:04:42;;;;;;;7.57;6.07;;;22.50;99.90;;;;;;5090838;28;20110;-64
2023/06/09 09:07:11;;;;;;;8.02;5.40;;;22.70;99.90;;;;;;5089939;28;20082;-64
2023/06/09 09:09:39;;;;;;;8.63;5.93;;;22.70;99.90;;;;;;5090978;28;20404;-64
2023/06/09 09:12:12;;;;;;;7.38;5.65;;;22.70;99.90;;;;;;5082916;28;20123;-64
2023/06/09 09:14:41;;;;;;;8.73;5.95;;;22.70;99.90;;;;;;5080705;28;20465;-64
2023/06/09 09:17:13;;;;;;;9.45;5.72;;;22.90;99.90;;;;;;5073735;28;20040;-64
2023/06/09 09:19:49;;;;;;;7.13;5.72;;;23.10;99.90;;;;;;5089577;28;20459;-64
2023/06/09 09:22:16;;;;;;;9.60;6.03;;;23.30;99.90;;;;;;5073757;28;20040;-64
2023/06/09 09:24:45;;;;;;;7.53;5.50;;;23.30;99.90;;;;;;5069492;28;20048;-64
2023/06/09 09:27:19;;;;;;;11.07;5.85;;;23.30;99.90;;;;;;5091454;28;20067;-64
2023/06/09 09:29:46;;;;;;;6.13;5.30;;;23.10;99.90;;;;;;5053145;28;20044;-64
2023/06/09 09:32:15;;;;;;;7.35;5.13;;;23.10;99.90;;;;;;5071605;28;20051;-64
2023/06/09 09:34:46;;;;;;;9.40;5.20;;;23.20;99.90;;;;;;5090460;28;20079;-64
2023/06/09 09:37:15;;;;;;;8.13;5.50;;;23.40;99.90;;;;;;5089697;28;20039;-64
2023/06/09 09:39:49;;;;;;;9.52;5.65;;;23.40;99.90;;;;;;5088076;28;20040;-64
2023/06/09 09:42:16;;;;;;;10.75;5.40;;;23.20;99.90;;;;;;5086902;28;20044;-64
2023/06/09 09:44:50;;;;;;;8.07;5.53;;;23.10;99.90;;;;;;5090246;28;20523;-64
2023/06/09 09:47:18;;;;;;;6.60;5.82;;;23.20;99.90;;;;;;5090238;28;20047;-64
2023/06/09 09:49:56;;;;;;;6.68;5.47;;;22.90;99.90;;;;;;5090215;28;20531;-64
2023/06/09 09:52:31;;;;;;;7.82;5.70;;;22.40;99.90;;;;;;5068577;28;20062;-64
2023/06/09 09:55:04;;;;;;;8.32;5.85;;;22.40;99.90;;;;;;5090028;28;20028;-64
2023/06/09 09:57:33;;;;;;;7.70;5.82;;;22.60;99.90;;;;;;5089175;28;20040;-64
2023/06/09 10:00:05;;;;;;;10.55;5.93;;;23.00;99.90;;;;;;5071258;28;20039;-64
2023/06/09 10:02:45;;;;;;;11.25;6.38;;;23.20;99.90;;;;;;5087434;28;20044;-64
2023/06/09 10:05:16;;;;;;;7.45;5.53;;;23.50;99.90;;;;;;5088371;28;20080;-64
2023/06/09 10:07:45;;;;;;;11.43;6.97;;;23.50;99.90;;;;;;5088574;28;20066;-64
2023/06/09 10:10:12;;;;;;;7.60;6.80;;;23.70;99.90;;;;;;5089059;28;20042;-64
2023/06/09 10:12:40;;;;;;;8.95;5.68;;;24.00;99.90;;;;;;5090210;28;20098;-64
2023/06/09 10:15:10;;;;;;;11.38;7.07;;;24.30;99.90;;;;;;5064635;28;20055;-64
2023/06/09 10:17:40;;;;;;;8.60;6.45;;;24.40;99.90;;;;;;5069891;28;20036;-64
2023/06/09 10:20:09;;;;;;;9.55;6.95;;;24.50;99.90;;;;;;5088279;28;20762;-64
2023/06/09 10:22:36;;;;;;;8.27;6.97;;;24.50;99.90;;;;;;5070376;28;20050;-64
2023/06/09 10:25:04;;;;;;;11.18;7.30;;;24.50;99.90;;;;;;5071613;28;20044;-64
2023/06/09 10:27:31;;;;;;;13.57;7.80;;;24.10;99.90;;;;;;5089150;28;20067;-64
2023/06/09 10:29:58;;;;;;;12.23;8.07;;;23.70;99.90;;;;;;5088067;28;20062;-64
2023/06/09 10:32:27;;;;;;;10.90;9.23;;;23.10;99.90;;;;;;5088362;28;20051;-64
2023/06/09 10:34:57;;;;;;;13.57;8.30;;;22.90;99.90;;;;;;5087223;28;20407;-64
2023/06/09 10:37:32;;;;;;;10.60;7.95;;;22.80;99.90;;;;;;5088677;28;20036;-64
2023/06/09 10:40:23;;;;;;;9.48;7.78;;;22.60;99.90;;;;;;5075367;28;20041;-64
2023/06/09 10:43:08;;;;;;;8.68;7.72;;;22.60;99.90;;;;;;5086215;28;20347;-64
2023/06/09 10:45:50;;;;;;;10.98;7.60;;;22.40;99.90;;;;;;5089285;28;20043;-64
2023/06/09 10:48:39;;;;;;;10.60;7.03;;;22.30;99.90;;;;;;5067347;28;20044;-64
2023/06/09 10:51:31;;;;;;;11.05;8.23;;;22.10;99.90;;;;;;5071567;28;20047;-64
2023/06/09 10:54:10;;;;;;;13.93;7.68;;;21.90;99.90;;;;;;5078541;28;20044;-64
2023/06/09 10:56:41;;;;;;;10.10;7.68;;;21.90;99.90;;;;;;5087905;28;20047;-64
2023/06/09 10:59:23;;;;;;;11.32;7.53;;;22.30;99.90;;;;;;5088871;28;20040;-64
2023/06/09 11:01:59;;;;;;;9.38;6.85;;;23.00;99.90;;;;;;5070685;28;20067;-64
2023/06/09 11:04:43;;;;;;;10.97;6.93;;;23.80;99.90;;;;;;5089207;28;20404;-64
2023/06/09 11:07:12;;;;;;;9.32;6.95;;;24.30;99.90;;;;;;5082226;28;20780;-64
2023/06/09 11:09:51;;;;;;;6.95;6.15;;;24.50;99.90;;;;;;5087631;28;20036;-64
2023/06/09 11:12:21;;;;;;;10.75;6.72;;;24.60;99.90;;;;;;5079983;28;20060;-64
2023/06/09 11:14:58;;;;;;;7.22;5.90;;;25.10;99.90;;;;;;5087368;28;20044;-64
2023/06/09 11:17:33;;;;;;;8.15;6.68;;;25.30;99.90;;;;;;5072013;28;20093;-64
2023/06/09 11:20:09;;;;;;;9.20;6.13;;;25.20;99.90;;;;;;5063202;28;20093;-64
2023/06/09 11:22:47;;;;;;;9.25;5.95;;;24.60;99.90;;;;;;5067808;28;20554;-64
2023/06/09 11:25:17;;;;;;;8.63;5.85;;;24.20;99.90;;;;;;5088058;28;20507;-64
2023/06/09 11:27:48;;;;;;;10.20;6.07;;;23.70;99.90;;;;;;5093991;28;20052;-64
2023/06/09 11:30:20;;;;;;;8.55;6.05;;;23.30;99.90;;;;;;5091706;28;20197;-64
2023/06/09 11:32:54;;;;;;;5.88;5.20;;;23.00;99.90;;;;;;5087492;28;20055;-64
2023/06/09 11:35:30;;;;;;;9.70;5.72;;;22.80;99.90;;;;;;5080526;28;20089;-64
2023/06/09 11:38:00;;;;;;;11.50;6.30;;;22.70;99.90;;;;;;5091419;28;20062;-64
2023/06/09 11:40:29;;;;;;;10.82;5.95;;;22.50;99.90;;;;;;5092305;28;20504;-64
2023/06/09 11:42:57;;;;;;;8.98;5.70;;;22.30;99.90;;;;;;5069706;28;20047;-64
2023/06/09 11:45:25;;;;;;;8.82;5.43;;;22.20;99.90;;;;;;5075052;28;20408;-64
2023/06/09 11:47:57;;;;;;;9.25;5.93;;;22.20;99.90;;;;;;5092046;28;20042;-64
2023/06/09 11:50:26;;;;;;;8.45;5.38;;;22.10;99.90;;;;;;5091988;28;20059;-64
2023/06/09 11:53:06;;;;;;;9.95;6.03;;;22.10;99.90;;;;;;5092024;28;20507;-64
2023/06/09 11:55:33;;;;;;;7.47;5.90;;;22.30;99.90;;;;;;5071914;28;20059;-65
2023/06/09 11:58:01;;;;;;;6.88;5.30;;;22.30;99.90;;;;;;5070785;28;20048;-65
2023/06/09 12:00:29;;;;;;;8.45;5.80;;;22.40;99.90;;;;;;5073865;28;20036;-65
2023/06/09 12:02:57;;;;;;;7.20;5.05;;;22.60;99.90;;;;;;5089294;28;20047;-63
2023/06/09 12:05:28;;;;;;;9.48;6.03;;;22.80;99.90;;;;;;5073109;28;20048;-63
2023/06/09 12:07:55;;;;;;;8.13;4.75;;;23.60;99.90;;;;;;5065154;28;20070;-63
2023/06/09 12:10:24;;;;;;;;;;;24.60;99.90;;;;;;5092185;28;20489;-64
2023/06/09 12:12:51;;;;;;;;;;;25.70;99.90;;;;;;5071489;28;19963;-63
2023/06/09 12:15:20;;;;;;;6.10;5.38;;;26.40;99.90;;;;;;5091979;28;19927;-63
2023/06/09 12:17:49;;;;;;;10.40;4.40;;;26.40;99.90;;;;;;5072572;28;20048;-63
2023/06/09 12:20:22;;;;;;;8.68;4.22;;;26.10;99.10;;;;;;5088295;28;20489;-63
2023/06/09 12:22:49;;;;;;;6.10;4.45;;;25.80;96.90;;;;;;5073039;28;20043;-63
2023/06/09 12:25:19;;;;;;;3.67;3.35;;;25.60;97.80;;;;;;5091355;28;20036;-63
2023/06/09 12:27:46;;;;;;;6.63;4.05;;;25.10;97.00;;;;;;5088505;28;20048;-63
2023/06/09 12:30:42;;;;;;;5.03;4.10;;;24.80;98.60;;;;;;5072954;28;20063;-63
2023/06/09 12:33:10;;;;;;;5.07;4.13;;;24.50;98.10;;;;;;5088095;28;20040;-63
2023/06/09 12:35:39;;;;;;;4.47;3.60;;;24.30;98.50;;;;;;5063640;28;20044;-63
2023/06/09 12:38:23;;;;;;;4.38;3.60;;;24.60;97.60;;;;;;5055699;28;20055;-64
2023/06/09 12:40:53;;;;;;;7.43;3.50;;;24.50;97.40;;;;;;5088197;28;20040;-64
2023/06/09 12:43:23;;;;;;;5.35;3.47;;;24.80;97.20;;;;;;5091287;28;20051;-64
2023/06/09 12:45:53;;;;;;;5.47;3.55;;;24.90;98.30;;;;;;5090468;28;20058;-64
2023/06/09 12:48:20;;;;;;;5.70;3.50;;;25.00;97.30;;;;;;5084945;28;20119;-64
2023/06/09 12:50:47;;;;;;;6.00;3.80;;;25.40;97.40;;;;;;5090474;28;20105;-65
2023/06/09 12:53:14;;;;;;;;;;;25.70;95.80;;;;;;5092104;28;20123;-64
2023/06/09 12:55:42;;;;;;;3.95;3.55;;;26.00;96.30;;;;;;5084342;28;20266;-64
2023/06/09 12:58:10;;;;;;;4.43;3.72;;;26.30;97.20;;;;;;5091415;28;20040;-64